Impacts TAF Board
For situational awareness. Not to be used for flight planning purposes.
IDs:

KIAH - Houston/Bush Intl, TX, US

Issued at 1734 UTC 02 Oct 2022
Updated at 1908 UTC 02 Oct 2022
Potential Impact None Slight Moderate High
Time1853Z 02/20Z 02/21Z 02/22Z 02/23Z 03/00Z 03/01Z 03/02Z 03/03Z 03/04Z 03/05Z 03/06Z 03/07Z 03/08Z>>
Type OBS PRVL PRVL PRVL PRVL PRVL PRVL PRVL PRVL PRVL PRVL PRVL PRVL PRVL
VIS 10 >6 >6 >6 >6 >6 >6 >6 >6 >6 >6 >6 >6 >6
CIG -- -- -- -- -- -- -- -- -- -- -- -- -- --
Cover SCT FEW FEW FEW FEW FEW FEW FEW SCT SCT SCT SCT SCT SCT
FltCat VFR VFR VFR VFR VFR VFR VFR VFR VFR VFR VFR VFR VFR VFR
WX -- -- -- -- -- -- -- -- -- -- -- -- -- --
WDir 70 70 70 70 70 70 70 70 VRB VRB VRB VRB VRB VRB
WSpd 7 7 7 7 7 7 7 7 2 2 2 2 2 2
WGst 17 -- -- -- -- -- -- -- -- -- -- -- -- --
WSHgt -- -- -- -- -- -- -- -- -- -- -- -- -- --
WSDir -- -- -- -- -- -- -- -- -- -- -- -- -- --
WSSpd -- -- -- -- -- -- -- -- -- -- -- -- -- --
R08/26
XWnd 2 2 2 2 2 2 2 2 VRB VRB VRB VRB VRB VRB
XGst 6 -- -- -- -- -- -- -- -- -- -- -- -- --
HWnd 7 7 7 7 7 7 7 7 VRB VRB VRB VRB VRB VRB
HGst 16 -- -- -- -- -- -- -- -- -- -- -- -- --
R09/27
XWnd 2 2 2 2 2 2 2 2 VRB VRB VRB VRB VRB VRB
XGst 6 -- -- -- -- -- -- -- -- -- -- -- -- --
HWnd 7 7 7 7 7 7 7 7 VRB VRB VRB VRB VRB VRB
HGst 16 -- -- -- -- -- -- -- -- -- -- -- -- --
R15/33
XWnd 7 7 7 7 7 7 7 7 VRB VRB VRB VRB VRB VRB
XGst 17 -- -- -- -- -- -- -- -- -- -- -- -- --
HWnd 1 1 1 1 1 1 1 1 VRB VRB VRB VRB VRB VRB
HGst 2 -- -- -- -- -- -- -- -- -- -- -- -- --
Raw TAF
KIAH 021734Z 0218/0324 07007KT P6SM FEW250
  FM030300 VRB02KT P6SM SCT250
  FM031400 06005KT P6SM BKN250


Raw METAR
KIAH 021853Z 07007G17KT 10SM SCT250 28/08 A3011 RMK AO2 SLP195 T02830078
KIAH 021753Z COR 02005KT 10SM FEW250 27/08 A3013 RMK AO2 SLP202 T02720083 10278 20128 58010
KIAH 021653Z 09004KT 10SM FEW250 27/09 A3015 RMK AO2 SLP210 T02670089

METAR Board
Radar Display
Forecast Discussion
For situational awareness. Not to be used for flight planning purposes.